Bhumibol Dam, Thaïlande

14:58 ICT le 22 octobre 2014 (GMT +0700)
Sukhothai | Change Station
CLOSE
Current Station
Aéroport
Location: SUKHOTHAI,
Altitude: 177 ft
Stations météo à proximité

Alt. 177 ft 17.24 °N, 99.82 °E | Updated 58 minutes ago

Mostly Cloudy
Nuageux
88 ° F
Paraît 98 ° F
N
9
Vent Variable Vent de NNO

Aujourd'hui
Haut(e) -- | Bas -- ° F
--% Risque de précip.
Hier
Haut(e) -- | Bas -- ° F
Precip. -- pouce
6:18 AM 5:57 PM
Lune descendante, 3% visible
Pression 29.86 pouce
Visibilité 6.2 Miles terrestres
Nuages Nuageux 2500 ft
Nuageux 30000 ft
indice de chaleur 98 ° F
Point de rosée 75 ° F
Humidité 66%
Précipitations 0.00 pouce
Profondeur de la couche neigeuse Non disponible.
UV 5 sur 12
Pollen Non disponible.
Qualité de l'air Non disponible.
Flu Activity Non disponible.
METAR VTPO 220700Z 33008KT 9999 BKN025 BKN300 31/24 Q1011

More Conditions Fewer Conditions

Pression 29.86 pouce
Visibilité 6.2 Miles terrestres
Nuages Nuageux 2500 ft
Nuageux 30000 ft
indice de chaleur 98 ° F
Point de rosée 75 ° F
Humidité 66%
Précipitations 0.00 pouce
Profondeur de la couche neigeuse Non disponible.
UV 5 sur 12
Pollen Non disponible.
Qualité de l'air Non disponible.
Flu Activity Non disponible.
METAR VTPO 220700Z 33008KT 9999 BKN025 BKN300 31/24 Q1011

More Conditions Fewer Conditions

10-Day Weather Forecast

Almanac

Astronomie

Oct. 22, 2014 Lever Coucher
Temps réel 06:18 ICT 17:57 ICT
Crépuscule civil 05:56 ICT 18:19 ICT
Crépuscule nautique 05:31 ICT 18:45 ICT
Crépuscule astronomique 05:05 ICT 19:10 ICT
Lune 04:45 ICT 16:55 ICT
Durée de lumière visible 12h 23m
Longueur du jour
11h 39m
Tomorrow will be 0m 52s shorter.
Lune descendante, 3% of the Moon is Illuminated
Aujourd'hui
Lune descendante
Oct 23
Nouveau
Oct 30
Premier quartier
Nov 6
Pleine lune
Nov 14
Dernier quartier

Les extrêmes de température d’hier

Country Highs Country Lows

Community

WunderPhotos

Upload Photos

1,763,889 Photos téléchargées !

Nearby

Qualité de l'air

Not available.

Épaisseur de neige

Not available.

Activité sismique

Ville Distance Mag. Time & Date
No recent earthquake activity has been reported nearby.
Minimum magnitude displayed is 2.5.

Températures des eaux côtières

Lieu Température
Aucun rapport de station

Stations météo à proximité